SR9SMR Weather Reports


Display with metric or nautical units.
time (UTC)temp
F
wind
direction
speed
MPH
gust
MPH
rain 1hr
in
rain 24hr
in
rain mn
in
humidity
%
barometer
mb
20260505230429 55 221 22.0 36.0 0.00 0.00 0.00 100 889.8
20260505230330 55 221 23.0 39.0 0.00 0.00 0.00 100 890.5
20260505230225 55 220 24.0 42.0 0.00 0.00 0.00 100 893.2
20260505230025 55 211 28.0 56.0 0.00 0.00 0.00 100 889.5
20260505225824 56 210 30.0 56.0 0.00 0.00 0.00 100 895.5
20260505225624 55 215 26.0 49.0 0.00 0.00 0.00 100 895.0
20260505225423 56 211 26.0 42.0 0.00 0.00 0.00 100 889.6
20260505225324 56 211 26.0 46.0 0.00 0.00 0.00 100 891.4
20260505225222 55 209 25.0 46.0 0.00 0.00 0.00 100 896.2
20260505225022 55 211 25.0 46.0 0.00 0.00 0.00 100 889.8
20260505224821 56 211 27.0 51.0 0.00 0.00 0.00 100 896.0
20260505224620 55 212 25.0 51.0 0.00 0.00 0.00 100 889.8
20260505224420 55 214 21.0 37.0 0.00 0.00 0.00 100 890.2
20260505224319 55 212 21.0 37.0 0.00 0.00 0.00 100 891.9
20260505224146 55 212 21.0 51.0 0.00 0.00 0.00 100 895.8
20260505224043 55 216 22.0 51.0 0.00 0.00 0.00 100 890.2
20260505223840 55 219 25.0 51.0 0.00 0.00 0.00 100 892.9
20260505223638 55 218 23.0 41.0 0.00 0.00 0.00 100 891.0
20260505223437 55 208 22.0 38.0 0.00 0.00 0.00 100 891.0
20260505223236 55 203 20.0 35.0 0.00 0.00 0.00 100 896.7
20260505223137 55 205 19.0 35.0 0.00 0.00 0.00 100 896.7
20260505223036 55 208 20.0 36.0 0.00 0.00 0.00 100 893.7
20260505222835 55 206 21.0 36.0 0.00 0.00 0.00 100 890.9
20260505222634 55 199 22.0 36.0 0.00 0.00 0.00 100 894.7
20260505222433 55 202 19.0 38.0 0.00 0.00 0.00 100 894.0
20260505222235 55 203 20.0 37.0 0.00 0.00 0.00 100 892.6
20260505222232 55 203 20.0 37.0 0.00 0.00 0.00 100 891.3
20260505222132 55 203 21.0 37.0 0.00 0.00 0.00 100 891.3
20260505222020 55 203 22.0 37.0 0.00 0.00 0.00 100 896.8
20260505221819 55 207 20.0 35.0 0.00 0.00 0.00 100 896.2
20260505221618 55 210 18.0 33.0 0.00 0.00 0.00 100 894.2
20260505221418 55 210 17.0 31.0 0.00 0.00 0.00 100 891.3
20260505221219 55 207 19.0 37.0 0.00 0.00 0.00 100 892.7
20260505221216 55 207 19.0 37.0 0.00 0.00 0.00 100 895.5
20260505221116 55 207 19.0 37.0 0.00 0.00 0.00 100 895.5
20260505220833 55 202 18.0 32.0 0.00 0.00 0.00 100 896.7
20260505220629 55 201 16.0 24.0 0.00 0.00 0.00 100 892.9
20260505220425 55 199 16.0 29.0 0.00 0.00 0.00 100 891.9
20260505220324 55 196 16.0 29.0 0.00 0.00 0.00 100 892.9
20260505220221 55 199 19.0 31.0 0.00 0.00 0.00 100 891.5
20260505220020 56 207 19.0 31.0 0.00 0.00 0.00 100 893.5
20260505215819 56 208 19.0 37.0 0.00 0.00 0.00 100 891.5
20260505215618 56 203 20.0 37.0 0.00 0.00 0.00 100 893.5
20260505215418 56 203 21.0 37.0 0.00 0.00 0.00 100 893.1
20260505215318 56 205 19.0 33.0 0.00 0.00 0.00 100 893.9
20260505215217 56 208 18.0 30.0 0.00 0.00 0.00 100 893.9
20260505215016 56 206 19.0 37.0 0.00 0.00 0.00 100 895.2
20260505214815 56 200 22.0 37.0 0.00 0.00 0.00 100 893.6
20260505214614 56 203 22.0 40.0 0.00 0.00 0.00 100 892.2
20260505214414 56 205 25.0 40.0 0.00 0.00 0.00 100 892.0
20260505214314 56 202 24.0 40.0 0.00 0.00 0.00 100 894.8
20260505214212 56 201 21.0 40.0 0.00 0.00 0.00 100 891.5
20260505214012 56 200 18.0 39.0 0.00 0.00 0.00 100 893.2
20260505213811 56 198 19.0 35.0 0.00 0.00 0.00 100 896.6
20260505213610 56 201 20.0 38.0 0.00 0.00 0.00 100 892.1
20260505213407 56 207 21.0 39.0 0.00 0.00 0.00 100 894.4
20260505213305 56 205 21.0 42.0 0.00 0.00 0.00 100 895.9
20260505213029 56 201 18.0 42.0 0.00 0.00 0.00 100 891.4
20260505212928 56 201 17.0 32.0 0.00 0.00 0.00 100 891.9
20260505212825 56 201 16.0 32.0 0.00 0.00 0.00 100 892.9
20260505212621 56 200 18.0 32.0 0.00 0.00 0.00 100 894.6
20260505212417 56 203 18.0 32.0 0.00 0.00 0.00 100 893.3
20260505212216 55 205 16.0 32.0 0.00 0.00 0.00 100 893.8
20260505212016 55 210 17.0 32.0 0.00 0.00 0.00 100 896.9
20260505211915 55 211 16.0 32.0 0.00 0.00 0.00 100 892.9
20260505211750 56 208 17.0 26.0 0.00 0.00 0.00 100 897.1
20260505211649 56 204 16.0 26.0 0.00 0.00 0.00 100 892.3
20260505211506 56 201 16.0 26.0 0.00 0.00 0.00 100 895.6
20260505211405 56 201 17.0 33.0 0.00 0.00 0.00 100 895.6
20260505211211 56 201 17.0 33.0 0.00 0.00 0.00 100 897.4
20260505211107 56 202 16.0 33.0 0.00 0.00 0.00 100 892.2
20260505210906 56 207 15.0 24.0 0.00 0.00 0.00 100 892.8
20260505210745 56 209 12.0 22.0 0.00 0.00 0.00 100 896.6
20260505210705 56 209 12.0 22.0 0.00 0.00 0.00 100 896.6
20260505210503 56 205 13.0 22.0 0.00 0.00 0.00 100 897.4
20260505210303 56 204 14.0 23.0 0.00 0.00 0.00 100 892.7
20260505210203 56 205 13.0 23.0 0.00 0.00 0.00 100 892.7
20260505210050 56 208 13.0 23.0 0.00 0.00 0.00 100 893.9
20260505205844 56 210 14.0 24.0 0.00 0.00 0.00 100 893.7
20260505205642 56 211 15.0 25.0 0.00 0.00 0.00 100 899.1
20260505205437 56 206 15.0 28.0 0.00 0.00 0.00 100 892.7
20260505205335 56 205 15.0 30.0 0.00 0.00 0.00 100 892.9
20260505205233 56 207 15.0 30.0 0.00 0.00 0.00 100 893.4
20260505205029 56 207 15.0 30.0 0.00 0.00 0.00 100 893.4
20260505204824 57 205 15.0 29.0 0.00 0.00 0.00 100 897.4
20260505204729 57 207 15.0 24.0 0.00 0.00 0.00 100 893.0
20260505204624 57 209 14.0 24.0 0.00 0.00 0.00 100 892.7
20260505204528 56 207 15.0 24.0 0.00 0.00 0.00 100 892.9
20260505204421 56 205 16.0 26.0 0.00 0.00 0.00 100 893.3
20260505204320 56 205 16.0 26.0 0.00 0.00 0.00 100 893.3
20260505204106 57 204 15.0 26.0 0.00 0.00 0.00 100 897.1
20260505204005 57 207 15.0 26.0 0.00 0.00 0.00 100 894.7
20260505203902 57 211 16.0 28.0 0.00 0.00 0.00 100 897.0
20260505203658 57 218 18.0 28.0 0.00 0.00 0.00 100 892.8
20260505203454 57 212 17.0 26.0 0.00 0.00 0.00 100 893.2
20260505203250 57 210 15.0 26.0 0.00 0.00 0.00 100 895.7
20260505203047 57 215 16.0 31.0 0.00 0.00 0.00 100 894.6
20260505202946 57 218 18.0 34.0 0.00 0.00 0.00 100 894.6
20260505202731 57 219 19.0 34.0 0.00 0.00 0.00 100 893.0
20260505202630 57 214 18.0 34.0 0.00 0.00 0.00 100 892.8
20260505202527 57 212 17.0 27.0 0.00 0.00 0.00 100 892.9
20260505202324 57 221 17.0 29.0 0.00 0.00 0.00 100 896.3
20260505202120 57 218 18.0 29.0 0.00 0.00 0.00 100 893.4
20260505201916 57 210 18.0 33.0 0.00 0.00 0.00 100 897.7
20260505201714 57 210 19.0 36.0 0.00 0.00 0.00 100 893.6
20260505201613 57 210 19.0 36.0 0.00 0.00 0.00 100 893.6
20260505201359 58 211 18.0 36.0 0.00 0.00 0.00 100 894.5
20260505201156 58 212 19.0 35.0 0.00 0.00 0.00 100 896.6
20260505200951 58 221 20.0 35.0 0.00 0.00 0.00 100 893.9
20260505200851 58 220 20.0 32.0 0.00 0.00 0.00 100 893.7
20260505200748 58 220 19.0 32.0 0.00 0.00 0.00 100 893.5
20260505200544 58 216 18.0 31.0 0.00 0.00 0.00 100 893.7
20260505200339 58 215 19.0 32.0 0.00 0.00 0.00 100 896.2
20260505200137 58 215 20.0 32.0 0.00 0.00 0.00 100 894.0
20260505195940 58 211 19.0 32.0 0.00 0.00 0.00 100 894.0
20260505195936 58 211 19.0 32.0 0.00 0.00 0.00 100 893.9
20260505195834 58 211 19.0 32.0 0.00 0.00 0.00 100 893.9
20260505195644 58 210 18.0 32.0 0.00 0.00 0.00 100 893.7
20260505195405 58 211 19.0 35.0 0.00 0.00 0.00 100 895.5
20260505195205 58 208 18.0 35.0 0.00 0.00 0.00 100 894.5
20260505195002 59 210 18.0 31.0 0.00 0.00 0.00 100 894.6
20260505194901 59 210 18.0 31.0 0.00 0.00 0.00 100 894.5
20260505194725 59 207 18.0 33.0 0.00 0.00 0.00 100 894.5
20260505194523 59 207 19.0 33.0 0.00 0.00 0.00 100 894.6
20260505194323 59 205 17.0 27.0 0.00 0.00 0.00 100 894.6
20260505194223 59 205 17.0 27.0 0.00 0.00 0.00 100 894.6
20260505193903 59 209 18.0 35.0 0.00 0.00 0.00 100 894.5
20260505193802 59 212 18.0 35.0 0.00 0.00 0.00 100 894.5
20260505193553 59 209 15.0 28.0 0.00 0.00 0.00 100 894.5
20260505193452 59 210 15.0 26.0 0.00 0.00 0.00 100 894.5
20260505193323 59 208 14.0 26.0 0.00 0.00 0.00 100 894.5
20260505193221 59 208 16.0 34.0 0.00 0.00 0.00 100 894.6
20260505192931 59 205 21.0 36.0 0.00 0.00 0.00 100 894.6
20260505192730 59 206 20.0 36.0 0.00 0.00 0.00 100 894.5
20260505192529 59 207 18.0 36.0 0.00 0.00 0.00 100 894.7
20260505192325 59 202 17.0 30.0 0.00 0.00 0.00 100 894.7
20260505192223 59 202 18.0 30.0 0.00 0.00 0.00 100 894.6
20260505192022 59 207 18.0 29.0 0.00 0.00 0.00 100 894.6
20260505191817 59 210 16.0 28.0 0.00 0.00 0.00 100 894.6
20260505191609 59 207 15.0 26.0 0.00 0.00 0.00 100 894.7
20260505191405 59 206 17.0 30.0 0.00 0.00 0.00 100 894.6
20260505191305 59 206 18.0 32.0 0.00 0.00 0.00 100 894.6
20260505191050 59 209 20.0 33.0 0.00 0.00 0.00 100 894.6
20260505190948 59 213 20.0 33.0 0.00 0.00 0.00 100 894.5
20260505190846 59 210 19.0 35.0 0.00 0.00 0.00 100 894.5
20260505190642 59 212 18.0 35.0 0.00 0.00 0.00 100 894.6
20260505190438 59 212 18.0 32.0 0.00 0.00 0.00 100 894.6
20260505190233 59 206 19.0 32.0 0.00 0.00 0.00 100 894.4
20260505190029 59 207 19.0 33.0 0.00 0.00 0.00 100 894.6
20260505185928 59 205 20.0 33.0 0.00 0.00 0.00 100 894.6
20260505185708 59 201 20.0 34.0 0.00 0.00 0.00 100 894.6
20260505185604 59 202 19.0 34.0 0.00 0.00 0.00 100 894.6
20260505185502 59 206 19.0 29.0 0.00 0.00 0.00 100 894.6
20260505185257 59 206 17.0 32.0 0.00 0.00 0.00 100 894.7
20260505185052 59 205 15.0 32.0 0.00 0.00 0.00 100 894.7
20260505184847 59 207 15.0 24.0 0.00 0.00 0.00 100 894.8
20260505184642 60 208 16.0 27.0 0.00 0.00 0.00 100 894.7
20260505184541 60 209 16.0 30.0 0.00 0.00 0.00 100 894.8
20260505184328 60 207 16.0 30.0 0.00 0.00 0.00 100 894.8
20260505184127 59 205 15.0 29.0 0.00 0.00 0.00 100 894.8
20260505183926 60 207 16.0 25.0 0.00 0.00 0.00 100 894.7
20260505183825 60 211 16.0 26.0 0.00 0.00 0.00 100 894.7
20260505183723 60 211 14.0 26.0 0.00 0.00 0.00 100 894.7
20260505183625 60 211 14.0 26.0 0.00 0.00 0.00 100 894.7
20260505183521 59 208 12.0 26.0 0.00 0.00 0.00 100 894.8
20260505183424 59 207 12.0 23.0 0.00 0.00 0.00 100 894.9
20260505183319 59 208 11.0 23.0 0.00 0.00 0.00 100 894.8
20260505183224 60 210 13.0 28.0 0.00 0.00 0.00 100 894.9
20260505183119 60 214 14.0 28.0 0.00 0.00 0.00 100 894.7
20260505183024 60 217 14.0 28.0 0.00 0.00 0.00 100 894.8
20260505182918 60 218 16.0 28.0 0.00 0.00 0.00 100 894.8
20260505182817 60 213 15.0 26.0 0.00 0.00 0.00 100 894.8
20260505182705 60 210 16.0 25.0 0.00 0.00 0.00 100 894.8
20260505182604 60 211 16.0 25.0 0.00 0.00 0.00 100 894.8
20260505182500 60 210 15.0 25.0 0.00 0.00 0.00 100 894.8
20260505182256 60 218 15.0 24.0 0.00 0.00 0.00 100 894.8
20260505182053 60 222 14.0 29.0 0.00 0.00 0.00 100 894.8
20260505181544 60 212 15.0 25.0 0.00 0.00 0.00 100 894.8
20260505181249 60 208 15.0 24.0 0.00 0.00 0.00 100 894.7
20260505181048 61 207 14.0 23.0 0.00 0.00 0.00 100 894.8
20260505181040 60 207 14.0 23.0 0.00 0.00 0.00 100 894.8
20260505180846 60 208 13.0 23.0 0.00 0.00 0.00 100 894.7
20260505180644 60 205 13.0 22.0 0.00 0.00 0.00 100 894.7
20260505180537 60 206 14.0 23.0 0.00 0.00 0.00 100 894.8
20260505180443 60 206 14.0 26.0 0.00 0.00 0.00 100 894.7
20260505175528 61 219 14.0 24.0 0.00 0.00 0.00 100 894.8
20260505175026 61 210 14.0 25.0 0.00 0.00 0.00 100 894.6
20260505174522 62 210 14.0 28.0 0.00 0.00 0.00 100 894.6
20260505174308 61 206 15.0 29.0 0.00 0.00 0.00 100 894.6
20260505174207 62 209 16.0 29.0 0.00 0.00 0.00 100 894.6
20260505174105 62 209 16.0 29.0 0.00 0.00 0.00 100 894.5
20260505173900 62 212 15.0 26.0 0.00 0.00 0.00 100 894.6
20260505173657 62 213 15.0 28.0 0.00 0.00 0.00 100 894.8
20260505173453 62 205 13.0 28.0 0.00 0.00 0.00 100 894.9
20260505173249 62 205 9.0 17.0 0.00 0.00 0.00 100 894.9
20260505173148 62 204 10.0 22.0 0.00 0.00 0.00 100 895.2
20260505172843 62 222 13.0 23.0 0.00 0.00 0.00 100 894.9
20260505172642 62 227 17.0 28.0 0.00 0.00 0.00 100 894.9
20260505172440 62 236 18.0 30.0 0.00 0.00 0.00 100 894.7
20260505172237 62 234 18.0 30.0 0.00 0.00 0.00 100 894.7
20260505172136 62 234 18.0 30.0 0.00 0.00 0.00 100 894.7
20260505172023 62 219 18.0 32.0 0.00 0.00 0.00 100 894.8
20260505171819 62 218 21.0 36.0 0.00 0.00 0.00 100 894.8
20260505171718 62 223 20.0 36.0 0.00 0.00 0.00 100 894.8
20260505171615 62 222 20.0 36.0 0.00 0.00 0.00 100 894.7
20260505171412 62 205 16.0 27.0 0.00 0.00 0.00 100 894.8
20260505171208 62 220 15.0 26.0 0.00 0.00 0.00 100 894.6
20260505171004 62 207 17.0 35.0 0.00 0.00 0.00 100 894.2
20260505170800 62 200 17.0 35.0 0.00 0.00 0.00 100 894.2
20260505170701 62 206 14.0 33.0 0.00 0.00 0.00 100 894.5
20260505170600 63 215 14.0 28.0 0.00 0.00 0.00 100 894.5
20260505170359 63 221 15.0 24.0 0.00 0.00 0.00 100 894.5
20260505170159 63 219 16.0 26.0 0.00 0.00 0.00 100 894.5
20260505165957 63 214 16.0 30.0 0.00 0.00 0.00 100 894.6
20260505165756 63 217 16.0 34.0 0.00 0.00 0.00 100 894.8
20260505165655 63 216 16.0 34.0 0.00 0.00 0.00 100 894.5
20260505165454 63 224 14.0 34.0 0.00 0.00 0.00 100 894.7
20260505165342 64 230 15.0 27.0 0.00 0.00 0.00 100 894.7
20260505165136 63 231 18.0 34.0 0.00 0.00 0.00 100 894.7
20260505164933 63 222 17.0 34.0 0.00 0.00 0.00 100 894.7
20260505164729 64 208 16.0 36.0 0.00 0.00 0.00 100 894.8
20260505164525 64 222 19.0 36.0 0.00 0.00 0.00 100 894.6
20260505164424 64 236 19.0 36.0 0.00 0.00 0.00 100 894.6
20260505164321 64 233 19.0 32.0 0.00 0.00 0.00 100 894.7
20260505164115 64 233 21.0 33.0 0.00 0.00 0.00 100 894.6
20260505163914 64 234 20.0 33.0 0.00 0.00 0.00 100 894.4
20260505163713 64 233 17.0 31.0 0.00 0.00 0.00 100 894.5
20260505163511 64 238 17.0 26.0 0.00 0.00 0.00 100 894.9
20260505163412 64 245 18.0 36.0 0.00 0.00 0.00 100 894.9
20260505163308 64 244 18.0 36.0 0.00 0.00 0.00 100 894.7
20260505163107 64 238 21.0 36.0 0.00 0.00 0.00 100 894.3
20260505162905 64 234 20.0 34.0 0.00 0.00 0.00 100 894.7
20260505162703 65 235 18.0 32.0 0.00 0.00 0.00 100 894.9
20260505162502 65 237 18.0 30.0 0.00 0.00 0.00 100 895.1
20260505162402 65 233 18.0 30.0 0.00 0.00 0.00 100 895.2
20260505162212 64 222 16.0 27.0 0.00 0.00 0.00 100 895.4
20260505162110 64 209 16.0 27.0 0.00 0.00 0.00 100 895.4
20260505161855 64 201 18.0 36.0 0.00 0.00 0.00 100 894.9
20260505161651 64 206 20.0 36.0 0.00 0.00 0.00 100 894.6
20260505161550 64 211 19.0 36.0 0.00 0.00 0.00 100 894.6
20260505161447 64 224 20.0 36.0 0.00 0.00 0.00 100 894.6
20260505161243 64 225 18.0 34.0 0.00 0.00 0.00 100 894.6
20260505161040 64 218 18.0 34.0 0.00 0.00 0.00 100 894.8
20260505160836 64 228 19.0 28.0 0.00 0.00 0.00 100 894.7
20260505160632 64 229 19.0 28.0 0.00 0.00 0.00 100 894.6
20260505160532 64 228 19.0 30.0 0.00 0.00 0.00 100 894.6
20260505160431 64 226 19.0 32.0 0.00 0.00 0.00 100 894.7
20260505160338 64 219 20.0 36.0 0.00 0.00 0.00 100 894.6
20260505160229 64 219 22.0 38.0 0.00 0.00 0.00 100 894.6
20260505160135 64 221 24.0 38.0 0.00 0.00 0.00 100 894.4
20260505153336 64 221 23.0 40.0 0.00 0.00 0.00 100 894.1
20260505153234 64 225 23.0 41.0 0.00 0.00 0.00 100 894.2
20260505153131 64 224 23.0 41.0 0.00 0.00 0.00 100 894.2
20260505152930 64 221 23.0 41.0 0.00 0.00 0.00 100 894.1
20260505152729 64 217 22.0 38.0 0.00 0.00 0.00 100 894.2
20260505152529 65 217 22.0 39.0 0.00 0.00 0.00 100 894.2
20260505152328 66 218 22.0 41.0 0.00 0.00 0.00 100 894.3
20260505152228 66 220 22.0 41.0 0.00 0.00 0.00 100 894.3
20260505152124 65 221 22.0 41.0 0.00 0.00 0.00 100 894.5
20260505151719 65 212 22.0 35.0 0.00 0.00 0.00 100 894.8
20260505151419 65 215 20.0 35.0 0.00 0.00 0.00 100 894.7
20260505151222 65 206 20.0 38.0 0.00 0.00 0.00 100 894.7
20260505151211 65 206 20.0 38.0 0.00 0.00 0.00 100 894.6
20260505151018 65 203 22.0 39.0 0.00 0.00 0.00 100 894.6
20260505150826 65 215 22.0 40.0 0.00 0.00 0.00 100 894.4
20260505150710 65 215 20.0 40.0 0.00 0.00 0.00 100 894.5
20260505150616 65 211 18.0 30.0 0.00 0.00 0.00 100 894.5
20260505150203 65 214 21.0 34.0 0.00 0.00 0.00 100 895.0
20260505140629 65 215 22.0 42.0 0.00 0.00 0.00 100 895.0
20260505140126 65 210 22.0 34.0 0.00 0.00 0.00 100 894.8
20260505130220 66 213 21.0 34.0 0.00 0.00 0.00 100 895.4
20260505130115 67 211 21.0 36.0 0.00 0.00 0.00 100 895.5
20260505124903 66 200 24.0 39.0 0.00 0.00 0.00 100 895.6
20260505124705 66 205 24.0 40.0 0.00 0.00 0.00 100 895.3
20260505124703 66 205 24.0 40.0 0.00 0.00 0.00 100 895.2
20260505124602 66 213 24.0 40.0 0.00 0.00 0.00 100 895.2
20260505124351 66 218 23.0 40.0 0.00 0.00 0.00 100 895.9
20260505124249 66 211 22.0 37.0 0.00 0.00 0.00 100 895.8
20260505124107 66 208 24.0 37.0 0.00 0.00 0.00 100 895.8
20260505124005 66 210 24.0 37.0 0.00 0.00 0.00 100 895.6
20260505123652 66 212 21.0 33.0 0.00 0.00 0.00 100 895.7
20260505123539 66 200 21.0 36.0 0.00 0.00 0.00 100 895.9
20260505123450 66 200 21.0 36.0 0.00 0.00 0.00 100 895.9
20260505123350 66 200 22.0 37.0 0.00 0.00 0.00 100 895.8
20260505123154 66 208 24.0 42.0 0.00 0.00 0.00 100 895.6
20260505123051 66 213 23.0 42.0 0.00 0.00 0.00 100 895.6
20260505122939 66 224 23.0 41.0 0.00 0.00 0.00 100 895.6
20260505122739 66 223 22.0 38.0 0.00 0.00 0.00 100 895.7
20260505122538 65 221 19.0 33.0 0.00 0.00 0.00 100 896.0
20260505122336 66 212 19.0 32.0 0.00 0.00 0.00 100 896.2
20260505122136 65 210 18.0 36.0 0.00 0.00 0.00 100 896.4
20260505122036 65 211 18.0 36.0 0.00 0.00 0.00 100 896.6
20260505121842 64 212 17.0 34.0 0.00 0.00 0.00 100 896.4
20260505121742 64 212 15.0 34.0 0.00 0.00 0.00 100 896.4
20260505121641 64 216 16.0 24.0 0.00 0.00 0.00 100 896.2
20260505121441 64 208 16.0 24.0 0.00 0.00 0.00 100 895.5
20260505121237 63 207 23.0 33.0 0.00 0.00 0.00 100 895.5
20260505121033 63 207 23.0 39.0 0.00 0.00 0.00 100 895.5
20260505120833 63 209 21.0 39.0 0.00 0.00 0.00 100 895.7
20260505120733 63 209 20.0 36.0 0.00 0.00 0.00 100 895.8
20260505120632 64 214 20.0 36.0 0.00 0.00 0.00 100 895.8
20260505120431 63 212 19.0 35.0 0.00 0.00 0.00 100 896.0
20260505120231 63 218 20.0 35.0 0.00 0.00 0.00 100 895.9
20260505120030 63 212 20.0 32.0 0.00 0.00 0.00 100 896.0
20260505115829 63 204 20.0 37.0 0.00 0.00 0.00 100 895.9
20260505115730 63 204 19.0 37.0 0.00 0.00 0.00 100 896.1
20260505115628 63 206 19.0 37.0 0.00 0.00 0.00 100 896.2
20260505115429 63 212 20.0 38.0 0.00 0.00 0.00 100 896.2
20260505115227 63 212 22.0 38.0 0.00 0.00 0.00 100 896.0
20260505115025 63 212 23.0 35.0 0.00 0.00 0.00 100 896.0
20260505114824 63 213 23.0 36.0 0.00 0.00 0.00 100 895.9
20260505114725 63 218 23.0 36.0 0.00 0.00 0.00 100 895.9
20260505114623 63 223 23.0 36.0 0.00 0.00 0.00 100 895.9
20260505114423 63 229 23.0 38.0 0.00 0.00 0.00 100 896.0
20260505114222 63 218 22.0 38.0 0.00 0.00 0.00 100 895.8
20260505114021 63 206 23.0 34.0 0.00 0.00 0.00 100 895.7
20260505113819 63 210 24.0 42.0 0.00 0.00 0.00 100 895.5
20260505113719 63 208 23.0 42.0 0.00 0.00 0.00 100 895.3
20260505113458 63 210 23.0 44.0 0.00 0.00 0.00 100 895.4
20260505113257 64 209 23.0 44.0 0.00 0.00 0.00 100 895.6
20260505113056 64 208 23.0 38.0 0.00 0.00 0.00 100 895.8
20260505112955 64 210 22.0 35.0 0.00 0.00 0.00 100 895.8
20260505112935 64 212 21.0 35.0 0.00 0.00 0.00 100 896.7
20260505112739 65 212 21.0 35.0 0.00 0.00 0.00 100 896.7
20260505112639 64 212 21.0 35.0 0.00 0.00 0.00 100 896.7
20260505112536 64 211 21.0 38.0 0.00 0.00 0.00 100 896.6
20260505112332 64 210 21.0 38.0 0.00 0.00 0.00 100 896.2
20260505112128 64 208 21.0 38.0 0.00 0.00 0.00 100 896.2
20260505111923 63 206 22.0 48.0 0.00 0.00 0.00 100 896.2
20260505111719 63 206 23.0 48.0 0.00 0.00 0.00 100 896.1
20260505111618 63 207 23.0 48.0 0.00 0.00 0.00 100 896.1
20260505111404 63 206 24.0 39.0 0.00 0.00 0.00 100 896.1
20260505111305 63 209 24.0 37.0 0.00 0.00 0.00 100 895.6
20260505111203 63 209 22.0 37.0 0.00 0.00 0.00 100 895.6
20260505111001 63 209 22.0 39.0 0.00 0.00 0.00 100 895.7
20260505110756 63 212 23.0 39.0 0.00 0.00 0.00 100 895.5
20260505110552 64 212 21.0 39.0 0.00 0.00 0.00 100 895.6
20260505110348 64 205 19.0 32.0 0.00 0.00 0.00 100 896.0
20260505110245 64 204 20.0 32.0 0.00 0.00 0.00 100 896.0
20260505102141 64 212 20.0 32.0 0.00 0.00 0.00 100 896.6
20260505102135 63 212 21.0 37.0 0.00 0.00 0.00 100 896.2
20260505101938 63 216 22.0 33.0 0.00 0.00 0.00 100 896.3
20260505101735 63 212 21.0 37.0 0.00 0.00 0.00 100 896.2
20260505101531 63 209 22.0 37.0 0.00 0.00 0.00 100 895.9
20260505101327 64 211 24.0 45.0 0.00 0.00 0.00 100 895.6
20260505101226 64 212 24.0 45.0 0.00 0.00 0.00 100 895.7
20260505100948 64 212 22.0 42.0 0.00 0.00 0.00 100 896.0
20260505100748 64 223 22.0 42.0 0.00 0.00 0.00 100 896.6
20260505100547 64 225 23.0 40.0 0.00 0.00 0.00 100 896.0
20260505100446 64 223 21.0 40.0 0.00 0.00 0.00 100 896.0
20260505100327 65 229 20.0 40.0 0.00 0.00 0.00 100 896.4
20260505100122 64 228 20.0 36.0 0.00 0.00 0.00 100 897.1
20260505100021 64 228 22.0 41.0 0.00 0.00 0.00 100 897.0
20260505095710 64 217 24.0 39.0 0.00 0.00 0.00 100 896.2
20260505095509 64 214 22.0 34.0 0.00 0.00 0.00 100 896.5
20260505095305 64 222 23.0 38.0 0.00 0.00 0.00 100 896.6
20260505095204 64 225 24.0 38.0 0.00 0.00 0.00 100 896.6
20260505094940 64 224 22.0 38.0 0.00 0.00 0.00 100 896.6
20260505094738 63 219 22.0 35.0 0.00 0.00 0.00 100 896.6
20260505094536 63 220 24.0 36.0 0.00 0.00 0.00 100 896.6
20260505094332 63 213 23.0 39.0 0.00 0.00 0.00 100 896.8
20260505094303 63 211 23.0 39.0 0.00 0.00 0.00 100 896.8
20260505094129 63 211 23.0 39.0 0.00 0.00 0.00 100 896.8
20260505093929 63 214 25.0 42.0 0.00 0.00 0.00 100 896.3
20260505093728 63 218 24.0 42.0 0.00 0.00 0.00 100 896.4
20260505093526 63 213 25.0 44.0 0.00 0.00 0.00 100 896.4
20260505093425 63 211 26.0 44.0 0.00 0.00 0.00 100 896.4
20260505093224 63 208 27.0 44.0 0.00 0.00 0.00 100 896.1
20260505093014 63 220 25.0 44.0 0.00 0.00 0.00 100 896.1
20260505092911 64 226 24.0 44.0 0.00 0.00 0.00 100 896.1
20260505092736 63 220 23.0 38.0 0.00 0.00 0.00 100 896.9
20260505092534 63 220 23.0 39.0 0.00 0.00 0.00 100 896.6
20260505092334 63 213 23.0 39.0 0.00 0.00 0.00 100 896.5
20260505092233 63 213 22.0 39.0 0.00 0.00 0.00 100 896.5
20260505092033 63 212 24.0 41.0 0.00 0.00 0.00 100 896.7
20260505091856 62 215 25.0 41.0 0.00 0.00 0.00 100 896.3
20260505091655 63 219 22.0 40.0 0.00 0.00 0.00 100 896.8
20260505091454 63 212 22.0 40.0 0.00 0.00 0.00 100 896.8
20260505091354 63 211 21.0 36.0 0.00 0.00 0.00 100 896.8
20260505091156 63 214 24.0 40.0 0.00 0.00 0.00 100 896.5
20260505090956 62 221 26.0 44.0 0.00 0.00 0.00 100 896.5
20260505090755 62 222 27.0 44.0 0.00 0.00 0.00 100 896.5
20260505090551 62 218 28.0 44.0 0.00 0.00 0.00 100 896.1
20260505090246 63 224 25.0 44.0 0.00 0.00 0.00 100 896.2
20260505085931 62 213 25.0 43.0 0.00 0.00 0.00 100 896.8
20260505085420 62 209 25.0 40.0 0.00 0.00 0.00 100 896.5
20260505084912 62 220 25.0 41.0 0.00 0.00 0.00 100 896.4
20260505084736 62 223 24.0 41.0 0.00 0.00 0.00 100 896.4
20260505084233 62 220 27.0 45.0 0.00 0.00 0.00 100 896.5
20260505083920 61 219 28.0 47.0 0.00 0.00 0.00 100 896.0
20260505083412 62 215 29.0 45.0 0.00 0.00 0.00 100 896.1
20260505082901 61 216 30.0 54.0 0.00 0.00 0.00 100 896.0
20260505082804 61 216 28.0 54.0 0.00 0.00 0.00 100 896.0
20260505082603 62 215 27.0 54.0 0.00 0.00 0.00 100 896.1
20260505082359 62 216 29.0 44.0 0.00 0.00 0.00 100 896.1
20260505082201 61 218 30.0 44.0 0.00 0.00 0.00 100 896.1
20260505082001 62 219 26.0 44.0 0.00 0.00 0.00 100 896.3
20260505081857 62 219 26.0 42.0 0.00 0.00 0.00 100 896.8
20260505081800 62 219 26.0 42.0 0.00 0.00 0.00 100 896.8
20260505081559 62 225 28.0 47.0 0.00 0.00 0.00 100 896.6
20260505081356 61 219 29.0 48.0 0.00 0.00 0.00 100 896.5
20260505081158 61 214 28.0 49.0 0.00 0.00 0.00 100 896.4
20260505080957 61 215 30.0 49.0 0.00 0.00 0.00 100 896.3
20260505080854 61 215 31.0 49.0 0.00 0.00 0.00 100 896.2
20260505080757 61 218 30.0 48.0 0.00 0.00 0.00 100 896.2
20260505080556 61 220 27.0 48.0 0.00 0.00 0.00 100 896.5
20260505080351 61 212 25.0 45.0 0.00 0.00 0.00 100 896.9
20260505080154 61 213 29.0 45.0 0.00 0.00 0.00 100 896.5
20260505075953 60 221 28.0 45.0 0.00 0.00 0.00 100 896.1
20260505075848 60 218 28.0 45.0 0.00 0.00 0.00 100 896.2
20260505075751 60 217 28.0 46.0 0.00 0.00 0.00 100 896.2
20260505075341 61 214 28.0 45.0 0.00 0.00 0.00 100 896.1
20260505075117 60 219 26.0 44.0 0.00 0.00 0.00 100 896.3
20260505074613 61 220 24.0 39.0 0.00 0.00 0.00 100 896.8
20260505074444 61 219 23.0 39.0 0.00 0.00 0.00 100 896.8
20260505074105 61 212 23.0 39.0 0.00 0.00 0.00 100 896.7
20260505073600 61 207 24.0 40.0 0.00 0.00 0.00 100 896.5
20260505073052 60 213 27.0 45.0 0.00 0.00 0.00 100 896.6
20260505072841 60 222 26.0 44.0 0.00 0.00 0.00 100 896.4
20260505072524 60 217 26.0 42.0 0.00 0.00 0.00 100 896.4
20260505072019 60 208 27.0 46.0 0.00 0.00 0.00 100 896.6
20260505071600 60 210 25.0 46.0 0.00 0.00 0.00 100 896.9
20260505071054 60 213 27.0 43.0 0.00 0.00 0.00 100 896.6
20260505070854 60 216 28.0 42.0 0.00 0.00 0.00 100 896.5
20260505070653 60 220 28.0 48.0 0.00 0.00 0.00 100 896.6
20260505070550 60 220 28.0 48.0 0.00 0.00 0.00 100 896.7
20260505070206 60 221 28.0 46.0 0.00 0.00 0.00 100 897.0
20260505065601 59 217 24.0 43.0 0.00 0.00 0.00 100 896.7
20260505065050 59 213 25.0 43.0 0.00 0.00 0.00 100 896.8
20260505064539 59 214 26.0 42.0 0.00 0.00 0.00 100 896.5
20260505064404 59 215 25.0 38.0 0.00 0.00 0.00 100 896.1
20260505063859 59 210 22.0 40.0 0.00 0.00 0.00 100 896.6
20260505063620 59 210 26.0 45.0 0.00 0.00 0.00 100 896.3
20260505063116 59 215 24.0 40.0 0.00 0.00 0.00 100 896.7
20260505062836 59 212 27.0 47.0 0.00 0.00 0.00 100 896.5
20260505062332 59 207 25.0 47.0 0.00 0.00 0.00 100 896.8
20260505062156 59 209 25.0 47.0 0.00 0.00 0.00 100 896.5
20260505061654 59 208 28.0 45.0 0.00 0.00 0.00 100 896.4
20260505061511 59 210 27.0 45.0 0.00 0.00 0.00 100 896.7
20260505060941 58 206 26.0 44.0 0.00 0.00 0.00 100 896.7
20260505060732 58 205 25.0 44.0 0.00 0.00 0.00 100 896.7
20260505060419 58 206 28.0 45.0 0.00 0.00 0.00 100 896.6
20260505055909 58 211 26.0 43.0 0.00 0.00 0.00 100 896.7
20260505055637 58 209 27.0 46.0 0.00 0.00 0.00 100 896.5
20260505055133 58 206 26.0 46.0 0.00 0.00 0.00 100 896.6
20260505054809 57 208 25.0 44.0 0.00 0.00 0.00 100 896.6
20260505054259 57 206 23.0 38.0 0.00 0.00 0.00 100 897.0
20260505053948 57 208 25.0 46.0 0.00 0.00 0.00 100 896.8
20260505053430 57 211 25.0 38.0 0.00 0.00 0.00 100 896.9
20260505052919 57 205 26.0 42.0 0.00 0.00 0.00 100 896.8
20260505052513 57 210 25.0 42.0 0.00 0.00 0.00 100 896.8
20260505052407 57 205 25.0 42.0 0.00 0.00 0.00 100 896.7
20260505052307 57 203 25.0 42.0 0.00 0.00 0.00 100 896.7
20260505052106 57 206 26.0 42.0 0.00 0.00 0.00 100 896.5
20260505051905 57 207 24.0 41.0 0.00 0.00 0.00 100 896.3
20260505051705 57 205 23.0 37.0 0.00 0.00 0.00 100 896.1
20260505051504 57 204 23.0 37.0 0.00 0.00 0.00 100 896.1
20260505051403 57 204 22.0 33.0 0.00 0.00 0.00 100 896.5
20260505051304 56 208 21.0 37.0 0.00 0.00 0.00 100 899.5
20260505051103 56 210 23.0 37.0 0.00 0.00 0.00 100 896.5
20260505050859 56 209 23.0 42.0 0.00 0.00 0.00 100 896.0
20260505050503 56 210 22.0 37.0 0.00 0.00 0.00 100 896.1
20260505050303 56 206 22.0 37.0 0.00 0.00 0.00 100 896.8
20260505050103 56 205 22.0 35.0 0.00 0.00 0.00 100 896.5
20260505041701 56 208 21.0 42.0 0.00 0.00 0.00 100 896.2
20260505041500 56 207 22.0 42.0 0.00 0.00 0.00 100 898.2
20260505041357 56 207 21.0 38.0 0.00 0.00 0.00 100 900.2
20260505041259 56 207 21.0 38.0 0.00 0.00 0.00 100 896.6
20260505041058 56 205 21.0 34.0 0.00 0.00 0.00 100 898.9
20260505040855 56 209 22.0 34.0 0.00 0.00 0.00 100 897.5
20260505040655 56 210 22.0 35.0 0.00 0.00 0.00 100 895.4
20260505040455 56 207 20.0 35.0 0.00 0.00 0.00 100 895.4
20260505040352 56 207 19.0 35.0 0.00 0.00 0.00 100 895.2
20260505040132 56 209 20.0 35.0 0.00 0.00 0.00 100 905.0
20260505035627 56 208 20.0 33.0 0.00 0.00 0.00 100 895.1
20260505035404 56 211 20.0 34.0 0.00 0.00 0.00 100 896.8
20260505034748 56 214 21.0 36.0 0.00 0.00 0.00 100 895.1
20260505034142 56 208 21.0 36.0 0.00 0.00 0.00 100 899.0
20260505033941 56 208 20.0 33.0 0.00 0.00 0.00 100 900.7
20260505033736 55 208 18.0 32.0 0.00 0.00 0.00 100 895.0
20260505033539 56 211 20.0 33.0 0.00 0.00 0.00 100 903.5
20260505033336 56 210 21.0 35.0 0.00 0.00 0.00 100 895.0
20260505033232 56 210 21.0 35.0 0.00 0.00 0.00 100 895.0
20260505033135 56 211 21.0 35.0 0.00 0.00 0.00 100 895.0
20260505032934 56 211 22.0 33.0 0.00 0.00 0.00 100 896.2
20260505032730 56 212 21.0 32.0 0.00 0.00 0.00 100 901.5
20260505032532 56 213 19.0 31.0 0.00 0.00 0.00 100 895.1
20260505032331 56 212 18.0 30.0 0.00 0.00 0.00 100 902.5
20260505032227 56 212 18.0 30.0 0.00 0.00 0.00 100 902.5
20260505032131 56 210 19.0 31.0 0.00 0.00 0.00 100 895.2
20260505031930 56 209 20.0 37.0 0.00 0.00 0.00 100 895.2
20260505031729 56 210 19.0 37.0 0.00 0.00 0.00 100 895.8
20260505031527 56 209 20.0 36.0 0.00 0.00 0.00 100 895.4
20260505031326 56 208 18.0 33.0 0.00 0.00 0.00 100 895.8
20260505031222 56 209 18.0 30.0 0.00 0.00 0.00 100 895.8
20260505031125 56 209 19.0 30.0 0.00 0.00 0.00 100 900.9
20260505030925 56 209 20.0 35.0 0.00 0.00 0.00 100 899.9
20260505030721 56 215 19.0 35.0 0.00 0.00 0.00 100 898.1
20260505030524 56 215 18.0 34.0 0.00 0.00 0.00 100 897.0
20260505030324 56 211 18.0 32.0 0.00 0.00 0.00 100 896.0
20260505030219 56 210 18.0 30.0 0.00 0.00 0.00 100 897.2
20260505030122 56 209 18.0 30.0 0.00 0.00 0.00 100 897.2
20260505025922 56 209 19.0 30.0 0.00 0.00 0.00 100 897.5
20260505025718 56 206 18.0 34.0 0.00 0.00 0.00 100 898.4
20260505025508 56 205 18.0 34.0 0.00 0.00 0.00 100 896.3
20260505025307 56 211 18.0 30.0 0.00 0.00 0.00 100 899.1
20260505025206 56 211 17.0 30.0 0.00 0.00 0.00 100 896.2
20260505025106 56 214 17.0 30.0 0.00 0.00 0.00 100 896.2
20260505024905 56 209 17.0 31.0 0.00 0.00 0.00 100 897.2
20260505024704 56 207 17.0 32.0 0.00 0.00 0.00 100 896.1
20260505024504 56 210 17.0 32.0 0.00 0.00 0.00 100 896.5
20260505024304 56 210 18.0 29.0 0.00 0.00 0.00 100 899.6
20260505024200 56 210 18.0 29.0 0.00 0.00 0.00 100 899.6
20260505024103 56 207 19.0 29.0 0.00 0.00 0.00 100 899.6
20260505023901 56 206 19.0 35.0 0.00 0.00 0.00 100 895.6
20260505023657 56 208 18.0 31.0 0.00 0.00 0.00 100 895.9
20260505023459 56 210 18.0 32.0 0.00 0.00 0.00 100 896.3
20260505023257 56 206 16.0 32.0 0.00 0.00 0.00 100 895.8
20260505023153 56 206 16.0 32.0 0.00 0.00 0.00 100 895.8
20260505023056 56 204 14.0 28.0 0.00 0.00 0.00 100 896.9
20260505022856 56 205 14.0 24.0 0.00 0.00 0.00 100 896.9
20260505022651 56 204 15.0 26.0 0.00 0.00 0.00 100 901.1
20260505022453 56 208 15.0 26.0 0.00 0.00 0.00 100 896.2
20260505022251 56 210 16.0 28.0 0.00 0.00 0.00 100 898.7
20260505022147 56 210 16.0 28.0 0.00 0.00 0.00 100 898.7
20260505022050 56 207 17.0 37.0 0.00 0.00 0.00 100 903.2
20260505021850 56 207 18.0 37.0 0.00 0.00 0.00 100 897.1
20260505021645 57 208 18.0 37.0 0.00 0.00 0.00 100 897.1
20260505021448 56 204 17.0 30.0 0.00 0.00 0.00 100 898.3
20260505021247 56 205 17.0 30.0 0.00 0.00 0.00 100 897.7
20260505021143 56 204 17.0 31.0 0.00 0.00 0.00 100 897.7
20260505021046 56 206 17.0 31.0 0.00 0.00 0.00 100 896.7
20260505020844 57 206 17.0 32.0 0.00 0.00 0.00 100 896.8
20260505020640 56 207 17.0 32.0 0.00 0.00 0.00 100 900.6
20260505020442 57 208 16.0 28.0 0.00 0.00 0.00 100 896.9
20260505020242 56 209 16.0 27.0 0.00 0.00 0.00 100 897.2
20260505020138 56 209 16.0 27.0 0.00 0.00 0.00 100 899.6
20260505020041 56 218 17.0 32.0 0.00 0.00 0.00 100 899.6
20260505015842 57 220 19.0 32.0 0.00 0.00 0.00 100 900.4
20260505015637 56 216 17.0 28.0 0.00 0.00 0.00 100 896.7
20260505015439 56 211 17.0 30.0 0.00 0.00 0.00 100 897.4
20260505015239 56 211 17.0 30.0 0.00 0.00 0.00 100 901.9
20260505015134 57 211 17.0 30.0 0.00 0.00 0.00 100 897.7
20260505015037 57 210 18.0 33.0 0.00 0.00 0.00 100 902.6
20260505014836 57 207 20.0 33.0 0.00 0.00 0.00 100 896.5
20260505014632 57 210 19.0 33.0 0.00 0.00 0.00 100 897.1
20260505014434 57 0 19.0 0.0 0.00 0.00 0.00 100 900.7
20260505014231 57 211 20.0 35.0 0.00 0.00 0.00 100 902.5
20260505014128 57 211 20.0 35.0 0.00 0.00 0.00 100 902.5
20260505014030 57 211 20.0 35.0 0.00 0.00 0.00 100 902.5
20260505013829 56 211 20.0 35.0 0.00 0.00 0.00 100 902.5
20260505013625 57 211 20.0 35.0 0.00 0.00 0.00 100 902.5
20260505013428 57 211 20.0 35.0 0.00 0.00 0.00 100 902.5
20260505013226 57 211 20.0 36.0 0.00 0.00 0.00 100 896.7
20260505013123 57 213 20.0 36.0 0.00 0.00 0.00 100 896.7
20260505013026 57 211 20.0 36.0 0.00 0.00 0.00 100 896.7
20260505012824 57 211 18.0 33.0 0.00 0.00 0.00 100 901.7
20260505012620 57 211 19.0 33.0 0.00 0.00 0.00 100 898.3
20260505012422 57 212 20.0 33.0 0.00 0.00 0.00 100 896.9
20260505012221 57 212 20.0 34.0 0.00 0.00 0.00 100 899.1
20260505012118 57 212 21.0 34.0 0.00 0.00 0.00 100 899.1
20260505012020 57 212 22.0 35.0 0.00 0.00 0.00 100 897.2
20260505011819 57 219 22.0 35.0 0.00 0.00 0.00 100 901.5
20260505011616 57 216 22.0 32.0 0.00 0.00 0.00 100 896.6
20260505011417 57 211 22.0 33.0 0.00 0.00 0.00 100 897.6
20260505011216 57 214 22.0 39.0 0.00 0.00 0.00 100 897.1
20260505011114 57 214 21.0 39.0 0.00 0.00 0.00 100 898.0
20260505011015 57 214 20.0 39.0 0.00 0.00 0.00 100 900.5
20260505010815 57 218 22.0 39.0 0.00 0.00 0.00 100 896.8
20260505010611 57 219 21.0 37.0 0.00 0.00 0.00 100 897.9
20260505010412 57 213 20.0 32.0 0.00 0.00 0.00 100 897.4
20260505010211 57 212 20.0 31.0 0.00 0.00 0.00 100 901.2
20260505010108 57 212 20.0 34.0 0.00 0.00 0.00 100 896.9
20260505010010 57 213 20.0 34.0 0.00 0.00 0.00 100 896.6
20260505005809 57 212 20.0 35.0 0.00 0.00 0.00 100 898.6
20260505005605 57 215 20.0 40.0 0.00 0.00 0.00 100 897.8
20260505005406 57 218 22.0 40.0 0.00 0.00 0.00 100 900.7
20260505005206 57 218 22.0 38.0 0.00 0.00 0.00 100 896.7
20260505005103 57 219 21.0 36.0 0.00 0.00 0.00 100 896.7
20260505005005 57 215 21.0 36.0 0.00 0.00 0.00 100 897.1
20260505004804 57 215 20.0 34.0 0.00 0.00 0.00 100 897.8
20260505004601 57 213 20.0 36.0 0.00 0.00 0.00 100 901.7
20260505004401 57 214 20.0 36.0 0.00 0.00 0.00 100 897.0
20260505004201 57 215 20.0 34.0 0.00 0.00 0.00 100 897.0
20260505004058 57 213 20.0 34.0 0.00 0.00 0.00 100 897.2
20260505004000 57 213 20.0 34.0 0.00 0.00 0.00 100 899.9
20260505003800 57 215 20.0 35.0 0.00 0.00 0.00 100 897.5
20260505003557 57 214 21.0 35.0 0.00 0.00 0.00 100 902.8
20260505003358 57 215 21.0 34.0 0.00 0.00 0.00 100 897.1
20260505003157 57 217 20.0 35.0 0.00 0.00 0.00 100 897.6
20260505003053 57 216 20.0 35.0 0.00 0.00 0.00 100 897.6
20260505002836 57 218 20.0 31.0 0.00 0.00 0.00 100 897.5
20260505002740 57 218 21.0 32.0 0.00 0.00 0.00 100 898.5
20260505002539 57 219 22.0 35.0 0.00 0.00 0.00 100 897.2
20260505002332 57 219 22.0 35.0 0.00 0.00 0.00 100 897.2
20260505002123 57 215 22.0 35.0 0.00 0.00 0.00 100 897.2
20260505001923 57 217 21.0 34.0 0.00 0.00 0.00 100 897.1
20260505001820 57 214 21.0 34.0 0.00 0.00 0.00 100 897.5
20260505001722 57 214 20.0 32.0 0.00 0.00 0.00 100 897.5
20260505001522 57 209 20.0 33.0 0.00 0.00 0.00 100 903.9
20260505001318 57 211 20.0 33.0 0.00 0.00 0.00 100 897.5
20260505001120 57 213 20.0 32.0 0.00 0.00 0.00 100 899.4
20260505000922 57 209 20.0 32.0 0.00 0.00 0.00 100 898.6
20260505000816 57 211 20.0 33.0 0.00 0.00 0.00 100 901.3
20260505000718 57 210 20.0 35.0 0.00 0.00 0.00 100 897.7
20260505000518 57 212 21.0 35.0 0.00 0.00 0.00 100 897.7
20260505000314 57 214 21.0 35.0 0.00 0.00 0.00 100 900.1
20260505000115 57 219 20.0 34.0 0.00 0.00 0.00 100 897.6
20260504235914 57 216 19.0 34.0 0.00 0.00 0.00 100 897.0
20260504235810 57 215 19.0 29.0 0.00 0.00 0.00 100 897.0
20260504235713 57 216 18.0 29.0 0.00 0.00 0.00 100 897.3
20260504235512 57 213 20.0 33.0 0.00 0.00 0.00 100 904.9
20260504235308 57 217 22.0 33.0 0.00 0.00 0.00 100 898.1
20260504235110 58 222 22.0 33.0 0.00 0.00 0.00 100 897.6
20260504234910 57 217 21.0 32.0 0.00 0.00 0.00 100 897.9
20260504234806 57 217 20.0 32.0 0.00 0.00 0.00 100 900.2
20260504234708 57 213 18.0 31.0 0.00 0.00 0.00 100 900.3
20260504234507 57 212 19.0 30.0 0.00 0.00 0.00 100 900.6
20260504234304 57 214 20.0 33.0 0.00 0.00 0.00 100 897.7
20260504234105 57 214 21.0 35.0 0.00 0.00 0.00 100 897.7
20260504233904 57 215 23.0 37.0 0.00 0.00 0.00 100 898.7
20260504233800 57 215 23.0 37.0 0.00 0.00 0.00 100 901.7
20260504233702 57 213 21.0 34.0 0.00 0.00 0.00 100 898.5
20260504233501 57 212 21.0 36.0 0.00 0.00 0.00 100 901.9
20260504233258 57 217 20.0 36.0 0.00 0.00 0.00 100 898.2
20260504233059 57 213 19.0 34.0 0.00 0.00 0.00 100 897.9
20260504232858 57 212 20.0 35.0 0.00 0.00 0.00 100 899.5
20260504232755 57 212 21.0 35.0 0.00 0.00 0.00 100 902.3
20260504232657 57 213 21.0 35.0 0.00 0.00 0.00 100 898.2
20260504232455 58 214 21.0 35.0 0.00 0.00 0.00 100 897.6
20260504232252 57 217 22.0 35.0 0.00 0.00 0.00 100 897.4
20260504232055 57 213 20.0 34.0 0.00 0.00 0.00 100 905.2
20260504231854 57 212 21.0 34.0 0.00 0.00 0.00 100 899.9
20260504231751 57 211 20.0 34.0 0.00 0.00 0.00 100 898.2
20260504231654 57 216 22.0 34.0 0.00 0.00 0.00 100 897.8
20260504231453 58 219 22.0 34.0 0.00 0.00 0.00 100 898.3
20260504231250 58 215 22.0 39.0 0.00 0.00 0.00 100 902.5
20260504231053 58 212 22.0 39.0 0.00 0.00 0.00 100 898.6
20260504230851 57 211 22.0 38.0 0.00 0.00 0.00 100 904.0
20260504230747 57 211 21.0 38.0 0.00 0.00 0.00 100 898.2
20260504230638 57 212 22.0 34.0 0.00 0.00 0.00 100 898.2